Time;durP1;ratioP1;P1;durP2;ratioP2;P2;SDS_P1;SDS_P2;PMS_P1;PMS_P2;Temp;Humidity;BMP_temperature;BMP_pressure;BME280_temperature;BME280_humidity;BME280_pressure;Samples;Min_cycle;Max_cycle;Signal;HPM_P1;HPM_P2
2021/04/01 00:00:13;;;;;;;7.73;3.23;;;;;;;7.85;86.67;94211.00;5094500;28;20206;-78
2021/04/01 00:02:39;;;;;;;7.53;2.93;;;;;;;7.90;86.93;94202.69;5094359;28;20202;-77
2021/04/01 00:05:08;;;;;;;9.97;2.90;;;;;;;7.96;85.80;94196.81;5094392;28;20202;-77
2021/04/01 00:07:35;;;;;;;11.80;3.33;;;;;;;8.17;84.04;94201.34;5094244;28;20201;-77
2021/04/01 00:10:01;;;;;;;9.53;3.00;;;;;;;8.18;83.83;94194.34;5094410;28;20206;-77
2021/04/01 00:12:27;;;;;;;6.67;2.90;;;;;;;8.21;83.69;94202.63;5094009;28;20711;-77
2021/04/01 00:14:53;;;;;;;8.77;2.93;;;;;;;8.19;82.25;94191.56;5093878;28;20289;-76
2021/04/01 00:17:22;;;;;;;6.57;3.00;;;;;;;8.31;81.31;94184.16;5093527;28;20683;-76
2021/04/01 00:19:48;;;;;;;8.67;2.87;;;;;;;8.43;81.21;94198.41;5094121;28;20660;-77
2021/04/01 00:22:15;;;;;;;8.47;2.80;;;;;;;8.15;83.43;94193.72;5093971;28;20223;-76
2021/04/01 00:24:41;;;;;;;8.00;3.00;;;;;;;8.18;83.12;94189.16;5093898;28;20254;-77
2021/04/01 00:27:08;;;;;;;8.37;3.17;;;;;;;8.10;83.29;94187.44;5094006;28;20233;-77
2021/04/01 00:29:34;;;;;;;5.80;2.83;;;;;;;8.01;82.76;94178.91;5093913;28;20206;-78
2021/04/01 00:32:00;;;;;;;10.23;2.80;;;;;;;8.11;82.85;94184.66;5093643;28;20238;-78
2021/04/01 00:34:26;;;;;;;8.33;3.10;;;;;;;7.93;84.57;94191.97;5093729;28;20606;-77
2021/04/01 00:36:51;;;;;;;6.63;3.17;;;;;;;8.01;84.33;94181.50;5093719;28;20210;-78
2021/04/01 00:39:18;;;;;;;7.13;3.10;;;;;;;8.19;83.07;94180.38;5094166;28;20199;-77
2021/04/01 00:41:44;;;;;;;9.47;2.97;;;;;;;8.11;82.88;94173.44;5093749;28;20209;-77
2021/04/01 00:44:10;;;;;;;9.97;3.30;;;;;;;8.11;83.76;94182.06;5093554;28;20281;-77
2021/04/01 00:46:37;;;;;;;8.00;2.90;;;;;;;8.11;83.38;94178.63;5093697;28;20198;-79
2021/04/01 00:49:03;;;;;;;5.07;2.70;;;;;;;8.32;82.08;94180.59;5093914;28;20645;-77
2021/04/01 00:51:29;;;;;;;8.03;3.20;;;;;;;8.30;81.53;94177.34;5093785;28;20210;-79
2021/04/01 00:53:57;;;;;;;6.63;3.20;;;;;;;8.20;82.40;94166.41;5093512;28;20272;-78
2021/04/01 00:56:25;;;;;;;8.53;3.13;;;;;;;8.04;82.81;94173.31;5093502;28;20209;-77
2021/04/01 00:58:52;;;;;;;7.10;3.27;;;;;;;7.94;83.20;94171.00;5093488;28;20198;-78
2021/04/01 01:01:31;;;;;;;10.27;3.42;;;;;;;7.96;83.36;94173.41;5092506;28;20429;-79
2021/04/01 01:03:58;;;;;;;7.00;3.10;;;;;;;8.20;82.23;94163.78;5093208;28;20660;-78
2021/04/01 01:06:24;;;;;;;8.07;2.90;;;;;;;8.30;82.25;94165.16;5093211;28;20621;-76
2021/04/01 01:08:50;;;;;;;10.33;3.53;;;;;;;8.11;84.06;94163.03;5093136;28;20248;-78
2021/04/01 01:11:16;;;;;;;8.73;3.13;;;;;;;8.26;83.20;94158.69;5093244;28;20198;-77
2021/04/01 01:13:42;;;;;;;5.83;2.70;;;;;;;8.30;82.72;94162.56;5093088;28;20241;-78
2021/04/01 01:16:09;;;;;;;5.93;2.70;;;;;;;8.29;82.22;94162.72;5093109;28;20198;-76
2021/04/01 01:18:34;;;;;;;10.83;3.07;;;;;;;8.12;83.39;94156.88;5093589;28;20664;-77
2021/04/01 01:21:01;;;;;;;5.17;2.20;;;;;;;7.96;84.53;94161.22;5093068;28;20202;-77
2021/04/01 01:23:29;;;;;;;7.27;2.63;;;;;;;7.71;85.05;94158.00;5092535;28;20194;-77
2021/04/01 01:25:58;;;;;;;4.57;2.77;;;;;;;7.73;84.96;94155.22;5072912;28;20203;-75
2021/04/01 01:28:25;;;;;;;5.47;2.73;;;;;;;7.67;85.15;94151.50;5072735;28;20206;-78
2021/04/01 01:30:53;;;;;;;6.80;2.63;;;;;;;7.71;84.59;94147.59;5072472;28;20203;-77
2021/04/01 01:33:20;;;;;;;9.80;2.87;;;;;;;7.59;84.23;94157.59;5072965;28;20239;-77
2021/04/01 01:35:47;;;;;;;6.20;3.03;;;;;;;7.55;85.23;94160.69;5072821;28;20202;-77
2021/04/01 01:38:14;;;;;;;9.80;2.80;;;;;;;7.71;84.90;94154.56;5072930;28;20206;-78
2021/04/01 01:40:40;;;;;;;7.40;2.60;;;;;;;7.66;85.47;94154.28;5072809;28;20243;-77
2021/04/01 01:43:09;;;;;;;9.87;2.50;;;;;;;7.68;85.28;94155.75;5072681;28;20283;-77
2021/04/01 01:45:36;;;;;;;13.17;2.90;;;;;;;7.82;84.82;94154.16;5072531;28;20596;-78
2021/04/01 01:48:03;;;;;;;10.40;3.57;;;;;;;8.00;84.76;94156.47;5072557;28;20221;-77
2021/04/01 01:50:30;;;;;;;11.77;3.30;;;;;;;8.00;83.99;94156.47;5072659;28;20238;-77
2021/04/01 01:52:57;;;;;;;3.90;2.60;;;;;;;7.92;84.52;94156.53;5072632;28;20279;-77
2021/04/01 01:55:25;;;;;;;9.77;3.87;;;;;;;7.83;84.89;94157.56;5072640;28;20566;-76
2021/04/01 01:57:51;;;;;;;8.77;2.40;;;;;;;7.72;86.07;94143.19;5072431;28;20203;-78
2021/04/01 02:00:24;;;;;;;12.23;3.37;;;;;;;7.69;86.25;94157.34;5072729;28;20214;-77
2021/04/01 02:02:53;;;;;;;6.83;2.63;;;;;;;7.64;86.11;94151.84;5072581;28;20205;-76
2021/04/01 02:05:20;;;;;;;5.97;2.77;;;;;;;7.69;85.76;94149.53;5072488;28;20194;-77
2021/04/01 02:07:47;;;;;;;7.47;2.73;;;;;;;7.76;84.79;94144.47;5072512;28;20213;-77
2021/04/01 02:10:15;;;;;;;5.57;2.67;;;;;;;7.60;84.42;94140.19;5072390;28;20202;-76
2021/04/01 02:12:41;;;;;;;10.90;3.10;;;;;;;7.50;85.17;94142.22;5072113;28;20697;-77
2021/04/01 02:15:11;;;;;;;9.53;3.03;;;;;;;7.55;84.31;94139.91;5072269;28;20658;-77
2021/04/01 02:17:38;;;;;;;8.23;3.00;;;;;;;7.69;83.29;94136.56;5072234;28;20646;-79
2021/04/01 02:20:07;;;;;;;6.67;3.03;;;;;;;7.70;83.63;94138.19;5072501;28;20248;-78
2021/04/01 02:22:33;;;;;;;5.07;2.60;;;;;;;7.57;83.77;94140.53;5072168;28;20099;-76
2021/04/01 02:24:59;;;;;;;11.33;3.07;;;;;;;7.43;84.69;94136.06;5072123;28;20207;-77
2021/04/01 02:27:26;;;;;;;7.10;2.83;;;;;;;7.70;84.36;94127.78;5072458;28;20203;-77
2021/04/01 02:29:52;;;;;;;6.50;3.23;;;;;;;7.90;83.48;94127.31;5072408;28;20203;-78
2021/04/01 02:32:18;;;;;;;5.70;3.07;;;;;;;7.97;83.12;94125.63;5071923;28;20241;-77
2021/04/01 02:34:45;;;;;;;8.23;2.97;;;;;;;7.87;83.77;94125.06;5072196;28;20252;-77
2021/04/01 02:37:11;;;;;;;8.47;3.20;;;;;;;7.87;83.92;94125.84;5072142;28;20230;-76
2021/04/01 02:39:37;;;;;;;11.40;3.00;;;;;;;7.74;85.10;94126.47;5073856;28;20665;-78
2021/04/01 02:42:04;;;;;;;8.73;3.13;;;;;;;7.64;85.56;94119.88;5075954;28;20206;-78
2021/04/01 02:44:30;;;;;;;8.33;2.80;;;;;;;7.53;85.68;94115.91;5075839;28;20222;-78
2021/04/01 02:46:56;;;;;;;6.50;2.90;;;;;;;7.37;86.39;94122.81;5075479;28;20613;-78
2021/04/01 02:49:22;;;;;;;8.27;3.87;;;;;;;7.44;85.30;94111.72;5075526;28;20214;-77
2021/04/01 02:51:49;;;;;;;8.67;3.57;;;;;;;7.59;84.70;94115.19;5075594;28;20205;-79
2021/04/01 02:54:15;;;;;;;7.63;3.10;;;;;;;7.54;84.55;94118.34;5075363;28;20203;-77
2021/04/01 02:56:41;;;;;;;8.93;3.10;;;;;;;7.52;84.97;94112.47;5075662;28;20206;-76
2021/04/01 02:59:07;;;;;;;10.87;3.33;;;;;;;7.73;84.19;94109.25;5075334;28;20230;-76
2021/04/01 03:01:33;;;;;;;8.23;3.53;;;;;;;7.80;83.98;94108.56;5075420;28;20194;-78
2021/04/01 03:04:01;;;;;;;10.43;3.33;;;;;;;7.86;83.60;94110.44;5075401;28;20255;-77
2021/04/01 03:06:27;;;;;;;8.27;3.80;;;;;;;7.89;83.54;94104.91;5074905;28;20529;-76
2021/04/01 03:08:53;;;;;;;7.27;3.40;;;;;;;7.78;83.85;94106.94;5075139;28;20199;-78
2021/04/01 03:11:21;;;;;;;5.67;2.87;;;;;;;7.65;84.82;94106.72;5075363;28;20233;-78
2021/04/01 03:13:47;;;;;;;8.27;3.63;;;;;;;7.52;85.72;94107.28;5075175;28;20589;-77
2021/04/01 03:16:13;;;;;;;8.10;3.20;;;;;;;7.38;85.57;94103.66;5087954;28;20198;-77
2021/04/01 03:18:39;;;;;;;11.33;3.43;;;;;;;7.36;85.98;94112.59;5095271;28;20671;-77
2021/04/01 03:21:06;;;;;;;5.97;3.57;;;;;;;7.33;86.65;94100.75;5095239;28;20201;-76
2021/04/01 03:23:32;;;;;;;8.63;3.07;;;;;;;7.26;86.87;94101.63;5095118;28;20686;-77
2021/04/01 03:25:59;;;;;;;7.57;3.30;;;;;;;7.32;86.97;94099.13;5095300;28;20198;-77
2021/04/01 03:28:26;;;;;;;11.73;3.50;;;;;;;7.33;86.17;94103.34;5095192;28;20203;-78
2021/04/01 03:30:57;;;;;;;9.23;3.40;;;;;;;7.40;86.42;94104.28;5094690;28;20245;-76
2021/04/01 03:33:24;;;;;;;13.20;3.53;;;;;;;7.41;85.78;94098.13;5094987;28;20324;-76
2021/04/01 03:35:49;;;;;;;8.77;3.80;;;;;;;7.34;86.02;94104.97;5094953;28;20259;-76
2021/04/01 03:38:17;;;;;;;7.80;3.50;;;;;;;7.38;85.23;94098.47;5095155;28;20194;-78
2021/04/01 03:40:43;;;;;;;6.33;3.13;;;;;;;7.37;85.13;94102.03;5094845;28;20732;-77
2021/04/01 03:43:10;;;;;;;8.97;3.97;;;;;;;7.56;84.27;94102.53;5094856;28;20198;-78
2021/04/01 03:45:36;;;;;;;6.37;3.30;;;;;;;7.70;83.42;94099.19;5094839;28;20209;-77
2021/04/01 03:48:02;;;;;;;12.73;4.27;;;;;;;7.82;82.71;94103.97;5094787;28;20289;-76
2021/04/01 03:50:28;;;;;;;10.73;3.80;;;;;;;7.72;83.01;94092.03;5094564;28;20649;-77
2021/04/01 03:52:54;;;;;;;14.97;3.83;;;;;;;7.82;82.70;94101.38;5094735;28;20221;-78
2021/04/01 03:55:38;;;;;;;13.07;4.00;;;;;;;7.73;83.55;94096.25;5094527;28;20255;-77
2021/04/01 03:58:15;;;;;;;15.33;4.10;;;;;;;7.75;83.81;94096.88;5094428;28;20660;-78
2021/04/01 04:00:45;;;;;;;12.03;4.10;;;;;;;7.85;82.75;94101.03;5094465;28;20208;-78
2021/04/01 04:03:19;;;;;;;9.47;3.47;;;;;;;7.78;83.23;94098.34;5094650;28;20270;-78
2021/04/01 04:05:55;;;;;;;7.30;3.23;;;;;;;7.62;83.63;94101.84;5094311;28;20198;-77
2021/04/01 04:08:38;;;;;;;12.87;3.90;;;;;;;7.53;83.74;94110.72;5094311;28;20237;-76
2021/04/01 04:11:11;;;;;;;15.40;3.83;;;;;;;7.57;84.01;94109.38;5094342;28;20289;-77
2021/04/01 04:13:44;;;;;;;11.73;4.03;;;;;;;7.55;84.72;94106.94;5094079;28;20228;-78
2021/04/01 04:16:10;;;;;;;8.17;4.00;;;;;;;7.38;84.58;94106.25;5094209;28;20205;-78
2021/04/01 04:18:36;;;;;;;10.23;4.13;;;;;;;7.39;84.90;94102.69;5094166;28;20209;-78
2021/04/01 04:21:03;;;;;;;12.27;4.20;;;;;;;7.35;85.20;94101.41;5094097;28;20202;-77
2021/04/01 04:23:29;;;;;;;11.18;4.63;;;;;;;7.36;85.20;94100.44;5093276;28;21005;-76
2021/04/01 04:25:57;;;;;;;9.10;3.73;;;;;;;7.44;84.27;94093.53;5094053;28;20202;-77
2021/04/01 04:28:31;;;;;;;9.73;4.23;;;;;;;7.59;83.62;94099.59;5094163;28;20301;-75
2021/04/01 04:30:57;;;;;;;9.03;3.40;;;;;;;7.48;84.85;94100.03;5093829;28;20259;-78
2021/04/01 04:33:24;;;;;;;9.77;4.00;;;;;;;7.52;84.22;94096.88;5093765;28;20221;-76
2021/04/01 04:35:50;;;;;;;11.83;3.93;;;;;;;7.59;84.09;94097.00;5093931;28;20206;-77
2021/04/01 04:38:16;;;;;;;10.97;4.70;;;;;;;7.51;84.56;94104.84;5093687;28;20194;-76
2021/04/01 04:40:42;;;;;;;13.73;4.33;;;;;;;7.30;86.39;94106.28;5093666;28;20202;-78
2021/04/01 04:43:08;;;;;;;11.67;4.30;;;;;;;7.39;85.75;94107.03;5093851;28;20209;-76
2021/04/01 04:45:34;;;;;;;11.20;4.20;;;;;;;7.37;85.84;94107.22;5093698;28;20205;-78
2021/04/01 04:48:00;;;;;;;12.90;4.27;;;;;;;7.30;85.83;94113.28;5093577;28;20233;-77
2021/04/01 04:50:27;;;;;;;12.40;4.93;;;;;;;7.39;86.16;94115.66;5093575;28;20202;-78
2021/04/01 04:52:53;;;;;;;15.13;5.00;;;;;;;7.62;84.97;94114.84;5093377;28;20575;-77
2021/04/01 04:55:20;;;;;;;14.70;4.40;;;;;;;7.47;85.06;94114.78;5093618;28;20244;-76
2021/04/01 04:57:52;;;;;;;14.57;4.80;;;;;;;7.29;86.05;94107.25;5093330;28;20721;-78
2021/04/01 05:05:50;;;;;;;12.23;4.67;;;;;;;7.52;85.62;94115.06;5093210;28;20201;-77
2021/04/01 05:08:17;;;;;;;21.87;5.20;;;;;;;7.62;84.99;94116.66;5092853;28;20201;-77
2021/04/01 05:10:43;;;;;;;14.23;4.90;;;;;;;7.58;85.14;94121.38;5093218;28;20232;-77
2021/04/01 05:13:09;;;;;;;14.27;5.30;;;;;;;7.61;85.31;94123.66;5093090;28;20225;-77
2021/04/01 05:15:39;;;;;;;17.20;4.80;;;;;;;7.70;84.57;94120.00;5093121;28;20284;-79
2021/04/01 05:18:14;;;;;;;15.70;5.10;;;;;;;7.73;85.63;94126.63;5092885;28;20644;-78
2021/04/01 05:20:41;;;;;;;12.37;5.03;;;;;;;7.87;84.16;94119.88;5093264;28;20250;-77
2021/04/01 05:23:15;;;;;;;12.13;4.70;;;;;;;7.70;85.14;94132.19;5092645;28;20194;-77
2021/04/01 05:25:41;;;;;;;14.70;4.80;;;;;;;7.77;85.18;94131.28;5093109;28;20201;-77
2021/04/01 05:28:18;;;;;;;19.63;5.10;;;;;;;7.78;85.07;94117.31;5093161;28;20198;-77
2021/04/01 05:30:44;;;;;;;16.30;5.00;;;;;;;7.82;85.24;94127.38;5092808;28;20667;-77
2021/04/01 05:33:11;;;;;;;8.47;4.37;;;;;;;7.68;85.40;94127.16;5092970;28;20237;-77
2021/04/01 05:35:37;;;;;;;12.67;3.73;;;;;;;7.72;85.15;94132.81;5092914;28;20205;-76
2021/04/01 05:38:04;;;;;;;13.67;4.27;;;;;;;7.66;85.38;94133.50;5092989;28;20297;-77
2021/04/01 05:40:31;;;;;;;9.07;4.43;;;;;;;7.86;85.29;94133.81;5092898;28;20208;-77
2021/04/01 05:42:58;;;;;;;8.97;4.10;;;;;;;7.75;85.07;94137.66;5092786;28;20206;-76
2021/04/01 05:45:27;;;;;;;15.60;4.60;;;;;;;7.74;87.42;94136.88;5092983;28;20280;-77
2021/04/01 05:47:59;;;;;;;12.82;5.63;;;;;;;7.92;87.14;94138.34;5092556;28;20792;-78
2021/04/01 05:50:39;;;;;;;12.50;5.27;;;;;;;7.98;86.60;94140.25;5092846;28;20241;-77
2021/04/01 06:01:45;;;;;;;11.67;5.30;;;;;;;8.59;84.83;94155.00;5092685;28;20217;-77
2021/04/01 06:04:20;;;;;;;19.10;5.47;;;;;;;8.93;84.18;94153.66;5092894;28;20286;-76
2021/04/01 06:06:52;;;;;;;11.07;5.23;;;;;;;9.07;84.14;94158.03;5092743;28;20228;-77
2021/04/01 06:09:24;;;;;;;15.70;5.27;;;;;;;9.28;82.05;94159.09;5092718;28;20226;-77
2021/04/01 06:11:53;;;;;;;12.90;4.60;;;;;;;9.18;83.45;94164.59;5092609;28;20202;-77
2021/04/01 06:14:46;;;;;;;10.87;5.20;;;;;;;9.47;85.03;94155.88;5093790;28;20230;-77
2021/04/01 06:17:18;;;;;;;11.93;4.50;;;;;;;9.67;82.69;94158.69;5096600;28;20259;-76
2021/04/01 06:19:52;;;;;;;13.13;5.00;;;;;;;9.58;82.87;94159.81;5096527;28;20747;-76
2021/04/01 06:22:21;;;;;;;11.97;4.50;;;;;;;9.51;84.10;94162.38;5096460;28;20198;-76
2021/04/01 06:24:49;;;;;;;15.37;4.27;;;;;;;9.53;81.73;94157.78;5096279;28;20580;-77
2021/04/01 06:27:22;;;;;;;11.73;4.07;;;;;;;9.37;83.11;94161.38;5095998;28;20194;-77
2021/04/01 06:32:36;;;;;;;11.87;3.33;;;;;;;9.62;81.87;94156.66;5095661;28;20302;-77
2021/04/01 06:35:09;;;;;;;14.97;3.93;;;;;;;9.86;82.21;94157.31;5096019;28;20198;-77
2021/04/01 06:37:49;;;;;;;10.47;3.47;;;;;;;10.02;81.56;94155.44;5096248;28;20193;-77
2021/04/01 06:40:15;;;;;;;10.37;3.20;;;;;;;10.12;81.32;94154.09;5096051;28;20217;-78
2021/04/01 06:42:48;;;;;;;10.70;3.70;;;;;;;10.21;81.43;94156.56;5094857;28;20540;-79
2021/04/01 06:45:19;;;;;;;7.00;3.37;;;;;;;10.26;81.18;94155.03;5095953;28;20204;-79
2021/04/01 06:47:46;;;;;;;11.37;3.43;;;;;;;10.38;81.32;94157.16;5095847;28;20232;-78
2021/04/01 06:50:21;;;;;;;8.23;3.23;;;;;;;10.42;81.04;94161.00;5096064;28;20264;-78
2021/04/01 06:52:55;;;;;;;7.93;2.63;;;;;;;10.55;79.97;94158.47;5095841;28;20669;-78
2021/04/01 06:55:28;;;;;;;5.77;2.23;;;;;;;10.65;79.50;94158.94;5095743;28;20654;-78
2021/04/01 06:58:08;;;;;;;10.50;2.53;;;;;;;10.93;76.73;94153.69;5095634;28;20229;-76
2021/04/01 07:00:54;;;;;;;8.87;2.33;;;;;;;11.17;76.51;94158.63;5095829;28;20289;-77
2021/04/01 07:03:25;;;;;;;5.33;1.97;;;;;;;11.27;77.05;94153.84;5095720;28;20202;-78
2021/04/01 07:05:54;;;;;;;9.37;2.40;;;;;;;11.48;80.03;94150.31;5095313;28;20202;-78
2021/04/01 07:08:35;;;;;;;4.43;2.17;;;;;;;11.84;72.96;94146.56;5095479;28;20198;-78
2021/04/01 07:11:03;;;;;;;11.47;2.30;;;;;;;12.07;71.17;94148.03;5095662;28;20293;-78
2021/04/01 07:13:36;;;;;;;7.30;2.10;;;;;;;12.36;68.96;94145.03;5095058;28;20284;-77
2021/04/01 07:16:23;;;;;;;10.40;2.20;;;;;;;12.51;69.40;94144.81;5095501;28;20206;-77
2021/04/01 07:18:59;;;;;;;2.40;1.67;;;;;;;12.66;69.99;94135.94;5095292;28;20213;-77
2021/04/01 07:35:38;;;;;;;3.10;1.80;;;;;;;14.08;63.27;94138.56;5074801;28;20210;-77
2021/04/01 07:46:39;;;;;;;5.37;1.77;;;;;;;15.04;59.87;94139.19;5074618;28;20206;-78
2021/04/01 07:49:15;;;;;;;6.53;2.10;;;;;;;15.34;55.63;94130.56;5074468;28;20207;-78
2021/04/01 07:51:58;;;;;;;12.30;1.80;;;;;;;15.56;57.28;94130.88;5074553;28;20202;-77
2021/04/01 07:54:34;;;;;;;8.47;2.70;;;;;;;15.69;53.29;94130.69;5074250;28;20234;-79
2021/04/01 07:57:21;;;;;;;9.33;2.00;;;;;;;15.91;51.81;94125.75;5074234;28;20214;-78
2021/04/01 07:59:57;;;;;;;4.97;1.80;;;;;;;16.21;53.28;94126.75;5074455;28;20226;-76
2021/04/01 08:02:46;;;;;;;4.10;1.60;;;;;;;16.39;53.78;94123.25;5074035;28;20548;-77
2021/04/01 08:05:14;;;;;;;5.05;1.60;;;;;;;16.58;48.46;94127.38;5074122;28;20668;-77
2021/04/01 08:07:49;;;;;;;5.63;1.85;;;;;;;16.74;50.82;94122.44;5072895;28;20445;-79
2021/04/01 08:10:18;;;;;;;9.82;1.85;;;;;;;16.89;46.93;94130.72;5074048;28;20672;-78
2021/04/01 08:12:50;;;;;;;8.00;1.85;;;;;;;16.89;46.90;94125.44;5073905;28;20227;-78
2021/04/01 08:15:20;;;;;;;4.97;1.75;;;;;;;16.95;48.39;94121.91;5074286;28;20194;-79
2021/04/01 08:17:53;;;;;;;6.50;1.88;;;;;;;17.14;46.95;94121.75;5074102;28;20242;-79
2021/04/01 08:20:23;;;;;;;4.15;1.88;;;;;;;17.24;46.20;94124.59;5074092;28;20202;-79
2021/04/01 08:23:03;;;;;;;12.02;1.80;;;;;;;17.34;47.95;94127.44;5074066;28;20225;-77
2021/04/01 08:25:33;;;;;;;5.95;1.80;;;;;;;17.67;44.48;94123.31;5073709;28;20285;-77
2021/04/01 08:28:16;;;;;;;5.57;1.70;;;;;;;17.68;46.49;94127.53;5073671;28;20203;-78
2021/04/01 08:33:34;;;;;;;3.53;1.73;;;;;;;17.81;44.63;94125.69;5047488;28;20262;-78
2021/04/01 08:36:01;;;;;;;7.18;1.80;;;;;;;17.84;44.47;94118.06;5073426;28;20203;-78
2021/04/01 08:38:28;;;;;;;8.80;1.83;;;;;;;17.97;48.56;94121.47;5071692;28;20533;-77
2021/04/01 08:40:54;;;;;;;4.75;1.75;;;;;;;18.01;47.40;94110.22;5073594;28;20206;-78
2021/04/01 08:43:46;;;;;;;14.32;1.92;;;;;;;18.05;45.71;94111.34;5073432;28;20294;-78
2021/04/01 08:46:38;;;;;;;12.07;2.30;;;;;;;18.25;46.79;94110.06;5073446;28;20210;-78
2021/04/01 08:49:22;;;;;;;9.15;1.70;;;;;;;18.33;45.71;94109.66;5073572;28;20259;-77
2021/04/01 08:52:17;;;;;;;7.05;1.80;;;;;;;18.36;45.77;94103.91;5073429;28;20729;-76
2021/04/01 08:54:44;;;;;;;10.55;2.20;;;;;;;18.49;44.98;94108.06;5073098;28;20281;-78
2021/04/01 08:57:12;;;;;;;4.22;1.67;;;;;;;18.54;43.53;94102.88;5073274;28;20694;-76
2021/04/01 08:59:57;;;;;;;7.40;2.05;;;;;;;18.56;44.61;94103.41;5073107;28;20228;-76
2021/04/01 09:02:25;;;;;;;9.07;2.15;;;;;;;18.56;44.36;94106.06;5073218;28;20202;-78
2021/04/01 09:04:54;;;;;;;6.80;1.75;;;;;;;18.67;44.00;94097.25;5073137;28;20209;-77
2021/04/01 09:07:25;;;;;;;5.35;1.90;;;;;;;18.75;43.83;94109.25;5073584;28;20221;-77
2021/04/01 09:09:53;;;;;;;5.57;1.67;;;;;;;18.89;43.89;94103.66;5073251;28;20248;-76
2021/04/01 09:12:24;;;;;;;5.97;1.92;;;;;;;19.00;41.65;94110.66;5073171;28;20213;-78
2021/04/01 09:14:58;;;;;;;6.80;1.98;;;;;;;19.04;42.73;94107.28;5073020;28;20230;-77
2021/04/01 09:17:29;;;;;;;18.17;2.00;;;;;;;19.07;44.76;94105.19;5072852;28;20205;-78
2021/04/01 09:19:57;;;;;;;6.63;1.60;;;;;;;19.26;43.64;94101.22;5073130;28;20278;-77
2021/04/01 09:22:26;;;;;;;6.82;1.88;;;;;;;19.75;41.70;94111.88;5073047;28;20202;-77
2021/04/01 09:24:56;;;;;;;8.32;1.80;;;;;;;19.92;40.46;94101.16;5072931;28;20268;-75
2021/04/01 09:27:24;;;;;;;5.82;1.90;;;;;;;19.94;40.67;94108.88;5082088;28;20198;-77
2021/04/01 09:30:00;;;;;;;5.28;1.60;;;;;;;19.74;43.12;94093.53;5093026;28;20198;-78
2021/04/01 09:32:30;;;;;;;6.70;2.35;;;;;;;19.63;41.20;94094.47;5092906;28;20293;-77
2021/04/01 09:34:59;;;;;;;7.38;2.05;;;;;;;19.64;40.17;94098.75;5093047;28;20626;-77
2021/04/01 09:37:27;;;;;;;6.97;1.70;;;;;;;19.41;39.97;94093.44;5092857;28;20707;-76
2021/04/01 09:39:54;;;;;;;7.43;2.20;;;;;;;19.48;41.84;94090.59;5092993;28;20300;-78
2021/04/01 09:42:20;;;;;;;7.43;2.50;;;;;;;19.54;42.26;94083.53;5092974;28;20202;-78
2021/04/01 09:44:52;;;;;;;6.53;2.30;;;;;;;19.51;41.71;94095.41;5092783;28;20725;-77
2021/04/01 09:47:24;;;;;;;3.08;1.80;;;;;;;19.74;40.60;94088.25;5093013;28;20202;-78
2021/04/01 09:50:02;;;;;;;6.20;2.10;;;;;;;20.15;41.90;94088.63;5097094;28;20206;-78
2021/04/01 09:52:29;;;;;;;7.50;2.10;;;;;;;20.48;40.34;94082.28;5097075;28;20206;-78
2021/04/01 09:54:56;;;;;;;11.80;2.10;;;;;;;20.95;40.38;94079.94;5096928;28;20232;-78
2021/04/01 09:57:27;;;;;;;3.22;1.60;;;;;;;21.10;38.83;94081.88;5097196;28;20572;-76
2021/04/01 10:00:09;;;;;;;6.07;1.48;;;;;;;21.32;38.75;94081.72;5096840;28;20198;-76
2021/04/01 10:02:38;;;;;;;7.63;1.77;;;;;;;21.38;36.73;94084.13;5096829;28;20202;-78
2021/04/01 10:05:11;;;;;;;5.10;1.40;;;;;;;21.58;36.81;94083.44;5096720;28;20201;-78
2021/04/01 10:07:55;;;;;;;3.72;1.67;;;;;;;21.54;36.04;94074.38;5096718;28;20288;-77
2021/04/01 10:10:34;;;;;;;7.18;1.70;;;;;;;20.87;37.00;94073.28;5096608;28;20559;-76
2021/04/01 10:13:00;;;;;;;7.40;2.00;;;;;;;20.87;36.73;94067.97;5096217;28;20452;-77
2021/04/01 10:15:29;;;;;;;5.35;1.55;;;;;;;20.94;36.11;94068.53;5096592;28;20297;-79
2021/04/01 10:17:56;;;;;;;5.35;2.05;;;;;;;20.90;37.13;94067.47;5096312;28;20664;-78
2021/04/01 10:20:23;;;;;;;3.83;1.80;;;;;;;20.74;36.66;94068.41;5096730;28;20213;-78
2021/04/01 10:22:49;;;;;;;6.57;1.75;;;;;;;20.75;38.53;94062.88;5096446;28;20194;-78
2021/04/01 10:25:22;;;;;;;4.38;1.67;;;;;;;20.66;38.36;94057.22;5096470;28;20202;-78
2021/04/01 10:27:53;;;;;;;7.90;2.00;;;;;;;20.76;39.24;94059.13;5096402;28;20260;-78
2021/04/01 10:30:21;;;;;;;10.13;1.95;;;;;;;20.53;39.20;94060.28;5096340;28;20276;-78
2021/04/01 10:32:52;;;;;;;6.15;1.63;;;;;;;20.25;40.95;94061.41;5095945;28;20238;-78
2021/04/01 10:35:24;;;;;;;8.07;2.13;;;;;;;20.31;40.23;94047.94;5096428;28;20198;-78
2021/04/01 10:37:52;;;;;;;8.85;1.92;;;;;;;20.28;40.41;94048.47;5096418;28;20198;-76
2021/04/01 10:40:23;;;;;;;4.82;1.90;;;;;;;20.14;39.12;94049.94;5096173;28;20277;-76
2021/04/01 10:43:01;;;;;;;10.73;2.00;;;;;;;19.99;41.41;94041.88;5096095;28;20546;-77
2021/04/01 10:45:33;;;;;;;7.75;1.90;;;;;;;20.00;41.79;94038.97;5095867;28;20204;-76
2021/04/01 10:48:21;;;;;;;7.75;2.00;;;;;;;20.18;41.78;94040.41;5096091;28;20194;-79
2021/04/01 10:50:50;;;;;;;7.38;2.40;;;;;;;20.23;39.86;94027.19;5095912;28;20289;-78
2021/04/01 10:53:20;;;;;;;4.82;1.98;;;;;;;20.28;41.03;94021.94;5095563;28;20221;-79
2021/04/01 10:55:47;;;;;;;7.78;2.20;;;;;;;20.16;40.69;94023.97;5095772;28;20594;-78
2021/04/01 10:58:15;;;;;;;5.18;1.65;;;;;;;20.08;41.92;94014.63;5095836;28;20236;-78
2021/04/01 11:00:50;;;;;;;5.70;1.75;;;;;;;19.96;41.40;94017.44;5094978;28;20198;-78
2021/04/01 11:03:18;;;;;;;9.70;2.08;;;;;;;20.11;43.23;94010.69;5095697;28;20198;-77
2021/04/01 11:05:48;;;;;;;9.20;2.30;;;;;;;20.23;41.94;94016.59;5095588;28;20198;-78
2021/04/01 11:08:18;;;;;;;4.45;1.92;;;;;;;20.30;38.43;94017.19;5095737;28;20599;-76
2021/04/01 11:10:46;;;;;;;7.50;1.90;;;;;;;20.36;36.08;94022.53;5095626;28;20534;-76
2021/04/01 11:13:14;;;;;;;8.98;2.00;;;;;;;20.27;40.11;94015.03;5095484;28;20669;-77
2021/04/01 11:15:41;;;;;;;3.63;2.08;;;;;;;20.37;37.71;94010.84;5095405;28;20255;-79
2021/04/01 11:18:12;;;;;;;5.03;2.20;;;;;;;20.31;38.37;94004.72;5095275;28;20772;-78
2021/04/01 11:20:40;;;;;;;5.70;1.63;;;;;;;20.43;37.75;94009.81;5095250;28;20198;-76
2021/04/01 11:23:09;;;;;;;8.23;2.15;;;;;;;20.38;39.64;94005.28;5095391;28;20198;-77
2021/04/01 11:25:38;;;;;;;6.70;2.10;;;;;;;20.47;40.99;94008.28;5094947;28;20679;-79
2021/04/01 11:28:05;;;;;;;6.75;2.10;;;;;;;20.51;36.07;94006.69;5095140;28;20205;-76
2021/04/01 11:30:48;;;;;;;6.85;1.95;;;;;;;20.58;43.11;93991.34;5095236;28;20557;-76
2021/04/01 11:33:14;;;;;;;8.57;2.10;;;;;;;20.82;37.43;93996.28;5094437;28;20225;-76
2021/04/01 11:35:42;;;;;;;3.60;1.83;;;;;;;20.68;36.91;93993.28;5095108;28;20205;-77
2021/04/01 11:38:17;;;;;;;3.83;2.00;;;;;;;20.66;36.41;93982.91;5094769;28;20684;-77
2021/04/01 11:40:53;;;;;;;8.10;2.30;;;;;;;20.87;37.07;93983.81;5094660;28;20459;-77
2021/04/01 11:43:25;;;;;;;3.63;1.83;;;;;;;20.94;39.92;93983.59;5094874;28;20202;-77
2021/04/01 11:45:52;;;;;;;6.75;2.20;;;;;;;21.08;38.58;93973.25;5095088;28;20198;-78
2021/04/01 11:48:18;;;;;;;6.07;2.03;;;;;;;21.42;36.68;93978.94;5094854;28;20206;-77
2021/04/01 11:50:44;;;;;;;5.97;1.88;;;;;;;21.42;35.32;93976.28;5094805;28;20194;-78
2021/04/01 11:53:11;;;;;;;3.97;1.85;;;;;;;21.60;35.62;93971.56;5094620;28;20267;-78
2021/04/01 11:55:52;;;;;;;4.32;2.05;;;;;;;21.71;35.77;93969.69;5094767;28;20198;-77
2021/04/01 11:58:23;;;;;;;5.10;2.17;;;;;;;21.76;35.31;93973.16;5094794;28;20600;-76
2021/04/01 12:00:51;;;;;;;8.15;2.00;;;;;;;22.05;36.68;93961.19;5094670;28;20208;-78
2021/04/01 12:03:23;;;;;;;7.38;1.80;;;;;;;22.25;36.02;93958.50;5094520;28;20206;-78
2021/04/01 12:05:51;;;;;;;5.22;1.90;;;;;;;22.64;37.78;93954.47;5094463;28;20286;-77
2021/04/01 12:08:18;;;;;;;6.93;1.73;;;;;;;22.74;34.75;93959.75;5094284;28;20288;-76
2021/04/01 12:10:54;;;;;;;6.72;1.90;;;;;;;22.96;34.20;93963.91;5094069;28;20202;-78
2021/04/01 12:13:21;;;;;;;4.43;1.65;;;;;;;22.69;31.82;93965.88;5093687;28;20232;-77
2021/04/01 12:15:47;;;;;;;9.65;2.20;;;;;;;22.40;32.55;93955.06;5094297;28;20209;-77
2021/04/01 12:18:16;;;;;;;7.00;1.98;;;;;;;22.25;32.24;93952.38;5094238;28;20214;-76
2021/04/01 12:20:43;;;;;;;5.45;2.10;;;;;;;22.33;34.91;93939.38;5094281;28;20202;-76
2021/04/01 12:23:10;;;;;;;6.28;1.75;;;;;;;22.59;33.37;93952.59;5094003;28;20198;-77
2021/04/01 12:25:36;;;;;;;8.80;1.70;;;;;;;22.57;31.81;93948.63;5094128;28;20213;-80
2021/04/01 12:28:04;;;;;;;4.10;1.67;;;;;;;22.59;32.99;93931.31;5094113;28;20205;-79
2021/04/01 12:30:33;;;;;;;4.75;1.60;;;;;;;22.84;33.33;93937.63;5093968;28;20194;-77